Terminal Aerodrome Forecast
Issued by NWS

Home | Current Version | Previous Version | Text Only | Print | Product List | Glossary On
Versions: 1 2 3 4 5 6 7 8 9 10 11 12 13 14 15 16 17 18 19 20 21 22 23 24 25 26
637
FTUS42 KCAE 272335
TAFDNL
TAF
KDNL 272335Z 2800/2824 17008KT P6SM VCSH SCT050 OVC100
      TEMPO 2800/2803 5SM -SHRA BKN050
     FM280300 20005KT 6SM BR OVC100
     FM281000 20003KT 4SM BR OVC007
     FM281500 20005KT P6SM OVC025
     FM281800 20008KT P6SM BKN040=

USA.gov is the U.S. government's official web portal to all federal, state and local government web resources and services.